Latest Flight | Flight Log | Data Trends | Login | Join FlightData.com!
Flight Info - N8765W (Cirrus SR20 (TCM) #1826)
Date
Origin
Dest
Depart
Arrive
Hobbs
Flight Time
Ground Time
Flight Distance
Taxi Distance
Fuel
Fuel/hr
Fuel/nm
Altitude
Gnd Speed
Thu, Jun 17, 2021 KBVI KBVI 19:47 20:09 0.36 hrs 0.16 hrs (0:10) 0.21 hrs (0:12) 16.51 nm 1.13 nm 2.3 gal 6.33 gal/hr 0.14 gal/nm 1980 msl 103.63 kts
Flight Track | Google Earth Export: 3D View, Cockpit View
NEXRAD Archive
Zoom In: Double click. Zoom Out: Double right-click.
Scroll Map: Left-click and drag. Show on graph: Click on track.
Graph |
Zoom In: Click and Drag to the right and down. Zoom Out: Click and Drag to the left.
Scroll Chart (while zoomed in): Hold right mouse-button.
More Flights - N8765W
Thu, Jun 17, 2021 KBVI KBVI 19:47 20:09 0.36 hrs 0.16 hrs 16.51 nm 2.30 gal 6.33 gal/hr 0.14 gal/nm 1980 msl 104 kts
Mon, Jun 14, 2021 KBVI KBVI 18:50 19:07 0.28 hrs 0.08 hrs 9.22 nm 1.40 gal 5.00 gal/hr 0.15 gal/nm 2185 msl 111 kts
Sat, Jun 12, 2021 KTYS KSUE 14:24 22:02 3.58 hrs 3.35 hrs 759.66 nm 44.40 gal 12.41 gal/hr 0.06 gal/nm 9041 msl 124 kts
Cruise 15:11:24 15:23:48   12m 24s 0 nm 1.86 gal 9 gal/h 0 gal/nm 0 feet 120 kts    
Cruise 15:29:00 15:54:00   25m 00s 0 nm 3.75 gal 9 gal/h 0 gal/nm 0 feet 121 kts    
Cruise 15:59:06 16:23:54   24m 48s 0 nm 3.72 gal 9 gal/h 0 gal/nm 0 feet 126 kts    
Cruise 16:29:00 16:53:48   24m 48s 0 nm 3.72 gal 9 gal/h 0 gal/nm 0 feet 126 kts    
Cruise 16:58:54 17:16:00   17m 06s 0 nm 2.57 gal 9 gal/h 0 gal/nm 0 feet 125 kts    
Cruise 21:39:06 21:51:12   12m 06s 0 nm 2.63 gal 13 gal/h 0 gal/nm 0 feet 122 kts    
Sat, Jun 12, 2021 KTYS KTYS 13:42 13:47 0.08 hrs 0 hrs 0.00 nm 0.20 gal 2.50 gal/hr 0.00 gal/nm 0 msl 0 kts
Thu, Jun 10, 2021 KDTS KTYS 15:10 18:26 3.21 hrs 2.95 hrs 428.63 nm 29.60 gal 9.21 gal/hr 0.07 gal/nm 7955 msl 144 kts
Cruise 15:49:12 16:11:24   22m 12s 0 nm 3.33 gal 9 gal/h 0 gal/nm 0 feet 155 kts    
Cruise 16:16:30 16:40:42   24m 12s 0 nm 3.63 gal 9 gal/h 0 gal/nm 0 feet 155 kts    
Cruise 16:45:48 16:54:42   8m 54s 0 nm 1.34 gal 9 gal/h 0 gal/nm 0 feet 153 kts    
Cruise 16:59:54 17:10:42   10m 48s 0 nm 1.62 gal 9 gal/h 0 gal/nm 0 feet 148 kts    
Cruise 17:15:48 17:35:48   20m 00s 0 nm 3 gal 9 gal/h 0 gal/nm 0 feet 143 kts    
Cruise 17:46:00 18:12:54   26m 54s 0 nm 4.04 gal 9 gal/h 0 gal/nm 0 feet 132 kts    
Tue, Jun 8, 2021 KAVL KDTS 12:37 15:52 3.21 hrs 2.96 hrs 391.32 nm 31.30 gal 9.74 gal/hr 0.08 gal/nm 7807 msl 131 kts
Cruise 13:12:36 13:38:48   26m 12s 0 nm 3.93 gal 9 gal/h 0 gal/nm 0 feet 135 kts    
Cruise 13:43:54 14:07:00   23m 06s 0 nm 3.85 gal 10 gal/h 0 gal/nm 0 feet 134 kts    
Cruise 14:12:06 14:16:18   4m 12s 0 nm 0.7 gal 10 gal/h 0 gal/nm 0 feet 131 kts    
Cruise 14:21:24 14:46:12   24m 48s 0 nm 3.72 gal 9 gal/h 0 gal/nm 0 feet 134 kts    
Cruise 14:51:18 14:57:24   6m 06s 0 nm 1.02 gal 10 gal/h 0 gal/nm 0 feet 131 kts    
Cruise 15:02:30 15:17:36   15m 06s 0 nm 2.52 gal 10 gal/h 0 gal/nm 0 feet 140 kts    
Cruise 15:34:54 15:36:48   1m 54s 0 nm 0.42 gal 13 gal/h 0 gal/nm 0 feet 128 kts    
Sun, Jun 6, 2021 KBVI KAVL 14:29 17:22 2.85 hrs 2.62 hrs 348.25 nm 27.50 gal 9.66 gal/hr 0.08 gal/nm 7809 msl 132 kts
Cruise 15:06:06 15:30:36   24m 30s 0 nm 4.09 gal 10 gal/h 0 gal/nm 0 feet 131 kts    
Cruise 15:35:42 15:49:24   13m 42s 0 nm 2.29 gal 10 gal/h 0 gal/nm 0 feet 135 kts    
Cruise 15:56:42 16:02:00   5m 18s 0 nm 0.8 gal 9 gal/h 0 gal/nm 0 feet 139 kts    
Cruise 16:07:06 16:29:48   22m 42s 0 nm 3.79 gal 10 gal/h 0 gal/nm 0 feet 134 kts    
Cruise 16:34:54 16:44:00   9m 06s 0 nm 1.52 gal 10 gal/h 0 gal/nm 0 feet 133 kts    
Cruise 16:49:06 17:11:06   22m 00s 0 nm 3.3 gal 9 gal/h 0 gal/nm 0 feet 134 kts    
Complete Flight Log (676)
FlightData.com is sponsored by AEROCOR